Tallahassee, Florida
Current Conditions -  °F | °C
As of 7:53 PM on Sunday 23 Nov 2014 (Local Time) from KTLH Reporting Station
Light Rain Light Rain  
Wind Chill: 65°   Ceiling: 6500
Heat Index: 65°   Visibility: 10mi
Dew Point: 61°   Wind: 6mph
Humidity: 87%   Direction: 150°SSE
Pressure: 29.85"   Gusts: NA
Location:  30.44°N, 84.28°W
Report Text: KTLH 240053Z 15005KT 10SM -RA FEW050 BKN065 BKN095 18/16 A2985 RMK AO2 SLP102 RAB41 T01830161 PNO $
Loading
Personal Weather Stations






























Interactive Weather Map New forecast layout! Learn more

10-Day Weather Forecast

Advertisements
Track Severe Weather on mobile